Time;durP1;ratioP1;P1;durP2;ratioP2;P2;SDS_P1;SDS_P2;PMS_P1;PMS_P2;Temp;Humidity;BMP_temperature;BMP_pressure;BME280_temperature;BME280_humidity;BME280_pressure;Samples;Min_cycle;Max_cycle;Signal;HPM_P1;HPM_P2
2022/11/30 00:00:42;;;;;;;22.83;9.02;;;;;;;-3.39;91.88;103315.56;10603486;28;20046;-81
2022/11/30 00:05:44;;;;;;;23.73;9.85;;;;;;;-3.41;91.77;103313.97;10596938;28;20036;-82
2022/11/30 00:10:46;;;;;;;22.13;9.77;;;;;;;-3.40;92.49;103313.84;10593730;28;20039;-87
2022/11/30 00:15:49;;;;;;;20.27;8.80;;;;;;;-3.42;92.35;103317.66;10584501;28;20064;-82
2022/11/30 00:20:51;;;;;;;20.60;8.48;;;;;;;-3.46;92.49;103314.34;10586812;28;20055;-83
2022/11/30 00:25:59;;;;;;;20.95;9.00;;;;;;;-3.46;92.42;103314.34;10568985;28;20048;-83
2022/11/30 00:31:05;;;;;;;21.65;9.73;;;;;;;-3.43;92.37;103303.38;10583665;27;20067;-81
2022/11/30 00:36:11;;;;;;;22.65;9.13;;;;;;;-3.40;92.21;103308.50;10601716;28;20055;-82
2022/11/30 00:41:13;;;;;;;18.42;8.77;;;;;;;-3.35;92.16;103313.47;10620517;27;20043;-84
2022/11/30 00:46:16;;;;;;;20.08;9.23;;;;;;;-3.42;92.23;103317.66;10597868;28;20039;-82
2022/11/30 00:51:19;;;;;;;22.35;8.65;;;;;;;-3.47;92.11;103301.03;10625504;27;20043;-80
2022/11/30 00:56:21;;;;;;;21.83;9.75;;;;;;;-3.43;91.46;103315.94;10632946;27;20039;-79
2022/11/30 01:01:24;;;;;;;19.90;8.85;;;;;;;-3.45;91.93;103310.69;10576862;28;20035;-80
2022/11/30 01:06:27;;;;;;;19.30;7.68;;;;;;;-3.42;91.97;103304.22;10599695;27;20031;-81
2022/11/30 01:11:30;;;;;;;20.63;9.63;;;;;;;-3.42;91.99;103305.06;10569778;28;20044;-78
2022/11/30 01:16:32;;;;;;;20.70;7.82;;;;;;;-3.44;92.05;103296.28;10575669;28;20410;-78
2022/11/30 01:21:35;;;;;;;21.13;9.32;;;;;;;-3.47;91.39;103296.56;10618881;27;20047;-79
2022/11/30 01:26:37;;;;;;;20.80;9.27;;;;;;;-3.50;91.37;103296.78;10660177;27;20047;-80
2022/11/30 01:31:39;;;;;;;19.60;8.52;;;;;;;-3.49;91.34;103300.31;10633297;27;20050;-80
2022/11/30 01:36:42;;;;;;;20.90;9.40;;;;;;;-3.52;91.57;103296.03;10631680;27;20515;-77
2022/11/30 01:41:45;;;;;;;21.33;9.80;;;;;;;-3.50;91.59;103304.81;10616027;27;20405;-78
2022/11/30 01:46:54;;;;;;;18.23;8.35;;;;;;;-3.48;91.65;103302.88;10605304;27;20042;-78
2022/11/30 01:52:02;;;;;;;18.08;8.00;;;;;;;-3.48;91.60;103297.50;10618575;27;20417;-80
2022/11/30 01:57:15;;;;;;;19.67;8.40;;;;;;;-3.47;91.62;103301.91;10600835;28;20077;-79
2022/11/30 02:02:19;;;;;;;19.95;8.70;;;;;;;-3.43;91.55;103303.38;10607234;27;20115;-80
2022/11/30 02:07:21;;;;;;;18.77;9.07;;;;;;;-3.44;91.36;103300.81;10596614;27;20039;-78
2022/11/30 02:12:40;;;;;;;21.45;8.90;;;;;;;-3.44;91.55;103298.97;10620946;27;20035;-77
2022/11/30 02:17:48;;;;;;;;;;;;;;;-3.42;91.62;103299.72;10611279;27;20425;-78
2022/11/30 02:28:51;;;;;;;25.80;10.15;;;;;;;-3.46;91.30;103295.56;10572732;28;20047;-79
2022/11/30 02:33:56;;;;;;;22.02;8.25;;;;;;;-3.48;91.45;103304.69;10561044;28;20055;-82
2022/11/30 02:38:58;;;;;;;19.88;9.55;;;;;;;-3.54;91.55;103303.38;10585074;28;20035;-82
2022/11/30 02:44:00;;;;;;;19.00;8.60;;;;;;;-3.56;91.44;103299.97;10616863;28;20417;-82
2022/11/30 02:49:12;;;;;;;22.65;9.70;;;;;;;-3.54;91.34;103306.06;10621201;27;20047;-81
2022/11/30 02:54:16;;;;;;;19.52;10.07;;;;;;;-3.54;91.05;103298.00;10639249;27;20039;-81
2022/11/30 02:59:19;;;;;;;19.15;8.43;;;;;;;-3.55;91.21;103288.25;10597071;27;20058;-82
2022/11/30 03:04:21;;;;;;;18.42;8.60;;;;;;;-3.54;90.84;103292.63;10581178;28;20043;-83
2022/11/30 03:09:23;;;;;;;19.77;10.05;;;;;;;-3.52;91.24;103298.72;10617161;27;20054;-83
2022/11/30 03:14:26;;;;;;;20.67;8.73;;;;;;;-3.53;91.48;103290.81;10615098;28;20047;-83
2022/11/30 03:19:28;;;;;;;17.95;8.32;;;;;;;-3.55;91.31;103288.25;10615851;28;20056;-83
2022/11/30 03:24:30;;;;;;;20.73;8.57;;;;;;;-3.55;91.04;103290.94;10615575;28;20038;-83
2022/11/30 03:29:32;;;;;;;16.02;8.55;;;;;;;-3.54;90.96;103289.94;10596392;28;20044;-83
2022/11/30 03:34:35;;;;;;;18.55;8.13;;;;;;;-3.56;91.19;103286.53;10594277;27;20046;-83
2022/11/30 03:39:37;;;;;;;21.25;10.13;;;;;;;-3.56;90.88;103281.16;10612850;28;20047;-82
2022/11/30 03:44:39;;;;;;;17.52;8.05;;;;;;;-3.55;90.83;103285.56;10631850;27;20034;-82
2022/11/30 03:49:41;;;;;;;21.33;8.82;;;;;;;-3.50;90.82;103280.66;10625453;27;20516;-83
2022/11/30 03:54:43;;;;;;;17.25;8.10;;;;;;;-3.52;90.78;103288.00;10600763;28;20039;-83
2022/11/30 03:59:45;;;;;;;18.17;7.20;;;;;;;-3.51;90.32;103281.66;10613054;27;20500;-83
2022/11/30 04:04:47;;;;;;;14.07;5.90;;;;;;;-3.49;90.73;103277.00;10605300;28;20039;-83
2022/11/30 04:09:50;;;;;;;17.42;7.93;;;;;;;-3.50;90.22;103280.66;10613388;28;20051;-82
2022/11/30 04:14:52;;;;;;;13.27;6.40;;;;;;;-3.51;90.56;103278.97;10635059;28;20050;-83
2022/11/30 04:19:54;;;;;;;10.35;4.00;;;;;;;-3.50;90.01;103269.06;10611427;28;20039;-85
2022/11/30 04:24:56;;;;;;;15.43;6.53;;;;;;;-3.51;90.08;103283.47;10587307;28;20051;-82
2022/11/30 04:29:58;;;;;;;17.25;6.90;;;;;;;-3.53;90.22;103272.88;10607395;28;20043;-84
2022/11/30 04:35:00;;;;;;;18.52;6.97;;;;;;;-3.52;90.23;103277.25;10577358;28;20520;-84
2022/11/30 04:40:03;;;;;;;6.55;2.92;;;;;;;-3.47;90.26;103280.44;10587624;28;20058;-83
2022/11/30 04:45:06;;;;;;;17.63;6.53;;;;;;;-3.53;90.31;103278.25;10578909;28;20059;-83
2022/11/30 04:50:08;;;;;;;13.40;6.85;;;;;;;-3.53;90.19;103262.13;10615167;28;20055;-83
2022/11/30 04:55:11;;;;;;;12.23;5.80;;;;;;;-3.53;89.90;103283.59;10597951;28;20054;-83
2022/11/30 05:00:15;;;;;;;15.25;6.55;;;;;;;-3.58;90.26;103279.59;10591366;28;20040;-84
2022/11/30 05:05:17;;;;;;;15.85;6.90;;;;;;;-3.58;90.23;103271.53;10593026;28;20418;-85
2022/11/30 05:10:19;;;;;;;16.95;6.07;;;;;;;-3.58;90.19;103279.59;10576566;28;20058;-84
2022/11/30 05:15:21;;;;;;;15.27;6.60;;;;;;;-3.60;90.28;103269.00;10604879;27;20032;-85
2022/11/30 05:20:24;;;;;;;13.45;6.75;;;;;;;-3.57;90.25;103271.41;10573705;27;20509;-84
2022/11/30 05:25:26;;;;;;;18.45;7.38;;;;;;;-3.61;89.95;103263.75;10593978;28;20036;-84
2022/11/30 05:30:28;;;;;;;10.98;5.72;;;;;;;-3.65;89.98;103269.34;10596406;27;20047;-84
2022/11/30 05:35:30;;;;;;;10.50;5.38;;;;;;;-3.60;90.11;103274.34;10580553;27;20035;-83
2022/11/30 05:40:33;;;;;;;12.05;5.10;;;;;;;-3.59;90.19;103269.84;10609936;28;20047;-84
2022/11/30 05:45:35;;;;;;;13.48;7.03;;;;;;;-3.61;90.13;103280.69;10613193;27;20051;-83
2022/11/30 05:50:37;;;;;;;4.97;2.60;;;;;;;-3.69;90.24;103283.97;10618783;27;20039;-83
2022/11/30 05:55:39;;;;;;;14.00;6.22;;;;;;;-3.73;90.46;103273.63;10589757;27;20659;-84
2022/11/30 06:00:42;;;;;;;14.07;6.85;;;;;;;-3.73;90.18;103295.09;10606964;27;20043;-83
2022/11/30 06:05:44;;;;;;;9.63;5.55;;;;;;;-3.77;90.60;103290.94;10607897;27;20029;-85
2022/11/30 06:10:47;;;;;;;13.25;6.85;;;;;;;-3.79;89.99;103291.06;10605238;27;20058;-84
2022/11/30 06:15:49;;;;;;;8.10;4.10;;;;;;;-3.81;90.09;103287.66;10595400;27;20035;-84
2022/11/30 06:20:51;;;;;;;13.35;6.30;;;;;;;-3.85;90.13;103296.06;10615371;28;20459;-85
2022/11/30 06:25:54;;;;;;;13.10;5.55;;;;;;;-3.89;90.56;103291.91;10595737;28;20035;-84
2022/11/30 06:31:00;;;;;;;9.50;4.97;;;;;;;-3.91;90.44;103307.28;10593770;28;20047;-83
2022/11/30 06:36:03;;;;;;;15.35;6.03;;;;;;;-3.93;90.36;103309.22;10597279;28;20051;-85
2022/11/30 06:41:07;;;;;;;11.60;4.47;;;;;;;-3.91;90.98;103307.28;10614637;27;20047;-83
2022/11/30 06:46:10;;;;;;;12.07;5.53;;;;;;;-3.90;90.54;103315.19;10610845;27;20048;-83
2022/11/30 06:51:12;;;;;;;11.80;6.03;;;;;;;-3.86;91.10;103319.34;10614454;27;20042;-80
2022/11/30 06:56:14;;;;;;;12.50;5.82;;;;;;;-3.89;90.87;103327.63;10628147;27;20047;-82
2022/11/30 07:01:18;;;;;;;12.60;5.45;;;;;;;-3.86;90.41;103324.72;10598808;27;20138;-83
2022/11/30 07:06:21;;;;;;;8.93;4.30;;;;;;;-3.89;90.43;103321.41;10601003;27;20444;-85
2022/11/30 07:11:23;;;;;;;13.70;5.82;;;;;;;-3.96;90.28;103327.28;10587639;27;20056;-82
2022/11/30 07:16:26;;;;;;;14.02;6.03;;;;;;;-3.95;90.11;103323.63;10611763;28;20047;-85
2022/11/30 07:21:28;;;;;;;18.10;6.45;;;;;;;-3.93;90.19;103325.31;10615239;28;20040;-83
2022/11/30 07:26:30;;;;;;;19.10;7.88;;;;;;;-3.92;90.19;103325.19;10654437;27;20043;-83
2022/11/30 07:31:35;;;;;;;13.43;5.90;;;;;;;-3.89;89.88;103316.06;10600741;27;20048;-82
2022/11/30 07:36:41;;;;;;;14.68;7.95;;;;;;;-3.92;90.11;103322.53;10646041;27;20035;-82
2022/11/30 07:41:44;;;;;;;14.45;7.32;;;;;;;-3.95;90.15;103323.63;10654836;27;20489;-82
2022/11/30 07:46:46;;;;;;;12.48;4.95;;;;;;;-3.91;89.72;103312.66;10596778;28;20051;-82
2022/11/30 07:51:48;;;;;;;15.38;6.25;;;;;;;-3.97;89.76;103325.56;10619154;28;20047;-81
2022/11/30 07:56:50;;;;;;;5.40;4.25;;;;;;;-4.00;90.24;103323.09;10619483;28;20047;-84
2022/11/30 08:01:52;;;;;;;15.55;7.82;;;;;;;-4.00;90.25;103324.94;10619430;28;20531;-82
2022/11/30 08:06:54;;;;;;;16.42;7.43;;;;;;;-4.00;90.53;103319.56;10637018;28;20044;-84
2022/11/30 08:11:57;;;;;;;10.75;5.20;;;;;;;-4.00;90.27;103328.47;10620772;28;20055;-84
2022/11/30 08:16:59;;;;;;;5.97;3.08;;;;;;;-3.99;90.42;103329.34;10620851;28;20071;-85
2022/11/30 08:22:06;;;;;;;13.15;6.22;;;;;;;-3.99;90.24;103321.31;10636743;28;20053;-83
2022/11/30 08:27:08;;;;;;;10.55;6.07;;;;;;;-3.92;90.01;103327.88;10640635;28;20035;-80
2022/11/30 08:32:10;;;;;;;6.10;3.20;;;;;;;-3.90;90.14;103320.56;10618649;28;20057;-80
2022/11/30 08:37:16;;;;;;;10.10;5.50;;;;;;;-3.84;89.84;103322.75;10614334;28;20409;-77
2022/11/30 08:42:18;;;;;;;13.98;5.30;;;;;;;-3.80;89.54;103324.25;10618727;28;20040;-79
2022/11/30 08:47:20;;;;;;;10.30;5.43;;;;;;;-3.78;89.78;103330.34;10614229;28;20050;-82
2022/11/30 08:52:23;;;;;;;14.68;6.13;;;;;;;-3.79;89.29;103322.41;10608495;28;20040;-81
2022/11/30 08:57:25;;;;;;;9.70;5.07;;;;;;;-3.82;88.60;103326.16;10612893;27;20048;-81
2022/11/30 09:02:27;;;;;;;9.77;5.10;;;;;;;-3.84;88.70;103316.53;10630373;27;20039;-82
2022/11/30 09:07:30;;;;;;;8.73;4.65;;;;;;;-3.83;88.62;103303.00;10615124;28;20074;-81
2022/11/30 09:12:36;;;;;;;13.63;6.07;;;;;;;-3.85;88.41;103298.75;10602480;27;20053;-82
2022/11/30 09:17:38;;;;;;;15.32;6.38;;;;;;;-3.87;87.91;103298.84;10640807;27;20058;-81
2022/11/30 09:22:41;;;;;;;13.68;5.35;;;;;;;-3.84;88.11;103292.41;10618264;28;20043;-81
2022/11/30 09:27:43;;;;;;;7.78;4.05;;;;;;;-3.84;87.86;103292.41;10630634;27;20042;-81
2022/11/30 09:32:50;;;;;;;9.43;5.32;;;;;;;-3.79;87.74;103292.91;10639137;27;20040;-82
2022/11/30 09:37:53;;;;;;;9.20;5.30;;;;;;;-3.79;87.87;103291.06;10637560;27;20049;-83
2022/11/30 09:43:10;;;;;;;9.65;5.43;;;;;;;-3.73;87.82;103297.78;10630943;27;20052;-84
2022/11/30 09:48:18;;;;;;;9.70;4.95;;;;;;;-3.78;87.16;103299.97;10607802;28;20042;-82
2022/11/30 09:53:24;;;;;;;8.73;4.63;;;;;;;-3.81;87.33;103295.72;10616979;27;20051;-83
2022/11/30 09:58:36;;;;;;;7.65;4.82;;;;;;;-3.81;87.68;103306.44;10600858;27;20489;-80
2022/11/30 10:03:38;;;;;;;12.02;4.90;;;;;;;-3.85;87.10;103306.78;10567019;28;20044;-79
2022/11/30 10:09:01;;;;;;;9.95;5.05;;;;;;;-3.90;86.74;103300.94;10576860;27;20043;-81
2022/11/30 10:14:12;;;;;;;6.47;3.67;;;;;;;-3.87;86.70;103304.22;10612304;27;20036;-81
2022/11/30 10:19:39;;;;;;;11.05;4.97;;;;;;;-3.88;86.75;103310.56;10642444;27;20061;-83
2022/11/30 10:25:18;;;;;;;6.90;3.67;;;;;;;-3.88;86.48;103318.63;10628737;27;20051;-83
2022/11/30 10:30:23;;;;;;;9.88;4.97;;;;;;;-3.84;86.64;103312.03;10637969;27;20065;-83
2022/11/30 10:35:42;;;;;;;8.77;5.00;;;;;;;-3.74;86.42;103296.06;10628859;27;20043;-82
2022/11/30 10:40:53;;;;;;;12.85;5.80;;;;;;;-3.73;86.45;103297.78;10615589;27;20041;-82
2022/11/30 10:45:55;;;;;;;10.45;4.68;;;;;;;-3.73;86.07;103300.47;10623003;27;20043;-81
2022/11/30 10:50:59;;;;;;;7.15;4.20;;;;;;;-3.77;86.03;103305.22;10629240;27;20044;-81
2022/11/30 10:56:14;;;;;;;9.65;4.05;;;;;;;-3.81;85.77;103308.28;10612800;28;20054;-81
2022/11/30 11:01:32;;;;;;;10.57;5.10;;;;;;;-3.80;85.72;103307.28;10641787;27;20047;-82
2022/11/30 11:06:35;;;;;;;9.95;5.72;;;;;;;-3.75;85.76;103286.31;10651782;27;20030;-81
2022/11/30 11:11:38;;;;;;;13.40;5.40;;;;;;;-3.79;85.71;103284.84;10627885;27;20042;-81
2022/11/30 11:17:25;;;;;;;3.63;2.63;;;;;;;-3.83;85.12;103294.09;10608031;28;20048;-80
2022/11/30 11:22:29;;;;;;;13.77;5.72;;;;;;;-3.87;85.01;103303.38;10614290;27;20046;-82
2022/11/30 11:27:32;;;;;;;5.25;2.50;;;;;;;-3.83;85.12;103294.09;10596609;28;20046;-81
2022/11/30 11:32:34;;;;;;;5.78;2.92;;;;;;;-3.92;85.10;103294.84;10584602;28;20060;-82
2022/11/30 11:37:40;;;;;;;10.57;4.78;;;;;;;-3.92;84.94;103289.47;10591817;27;20045;-82
2022/11/30 11:42:46;;;;;;;8.43;4.80;;;;;;;-3.98;85.22;103291.69;10594356;28;20501;-81
2022/11/30 11:48:30;;;;;;;5.97;3.75;;;;;;;-3.96;85.00;103295.09;10626228;28;20082;-81
2022/11/30 11:53:41;;;;;;;7.72;4.15;;;;;;;-3.93;85.21;103288.63;10524396;28;20361;-82
2022/11/30 11:59:12;;;;;;;9.30;3.83;;;;;;;-3.90;85.07;103290.22;10573121;28;20038;-81
2022/11/30 12:04:36;;;;;;;11.55;5.88;;;;;;;-3.97;84.86;103296.06;10558053;28;20052;-81
2022/11/30 12:09:42;;;;;;;9.27;3.90;;;;;;;-4.02;85.49;103278.59;10590246;28;20382;-81
2022/11/30 12:14:44;;;;;;;6.93;3.78;;;;;;;-4.08;85.11;103292.50;10606357;28;20047;-82
2022/11/30 12:20:13;;;;;;;5.10;3.00;;;;;;;-4.14;85.38;103301.91;10623758;28;20036;-85
2022/11/30 12:25:29;;;;;;;3.92;3.17;;;;;;;-4.15;85.41;103300.19;10607418;27;20513;-84
2022/11/30 12:30:59;;;;;;;9.00;4.55;;;;;;;-4.08;85.05;103292.50;10601531;27;20050;-85
2022/11/30 12:36:26;;;;;;;10.77;4.03;;;;;;;-4.11;85.22;103290.94;10608272;28;20039;-83
2022/11/30 12:41:43;;;;;;;6.53;3.60;;;;;;;-4.14;84.63;103299.22;10613667;28;20049;-84
2022/11/30 12:46:54;;;;;;;10.50;4.18;;;;;;;-4.16;84.97;103287.75;10613965;28;20044;-83
2022/11/30 12:52:05;;;;;;;7.38;4.05;;;;;;;-4.19;84.67;103308.56;10607595;28;20039;-82
2022/11/30 12:57:20;;;;;;;5.90;3.53;;;;;;;-4.20;84.51;103298.81;10632833;28;20489;-82
2022/11/30 13:03:00;;;;;;;9.90;4.80;;;;;;;-4.18;85.07;103310.28;10606175;27;20500;-82
2022/11/30 13:08:15;;;;;;;5.38;3.13;;;;;;;-4.17;84.94;103307.47;10628478;27;20052;-81
2022/11/30 13:13:20;;;;;;;9.35;5.10;;;;;;;-4.11;84.77;103316.88;10617342;28;20036;-80
2022/11/30 13:18:23;;;;;;;7.22;3.88;;;;;;;-4.19;84.35;103297.84;10604657;27;20501;-81
2022/11/30 13:23:37;;;;;;;6.13;3.35;;;;;;;-4.25;84.62;103300.03;10610490;27;20036;-83
2022/11/30 13:28:39;;;;;;;10.50;4.72;;;;;;;-4.26;84.61;103303.69;10609578;28;20044;-81
2022/11/30 13:33:57;;;;;;;5.65;3.30;;;;;;;-4.21;84.59;103299.78;10634616;27;20042;-82
2022/11/30 13:39:13;;;;;;;7.10;4.27;;;;;;;-4.30;84.52;103304.06;10631100;27;20051;-80
2022/11/30 13:44:42;;;;;;;5.88;3.10;;;;;;;-4.36;84.44;103301.81;10629770;27;20043;-81
2022/11/30 13:49:55;;;;;;;6.53;3.85;;;;;;;-4.41;84.21;103298.66;10622595;28;20055;-78
2022/11/30 13:55:34;;;;;;;10.75;5.03;;;;;;;-4.37;84.31;103292.09;10618052;27;20041;-85
2022/11/30 14:00:36;;;;;;;7.55;5.03;;;;;;;-4.39;83.97;103296.72;10636093;27;20032;-82
2022/11/30 14:05:43;;;;;;;11.50;5.32;;;;;;;-4.39;84.22;103307.44;10630143;27;20032;-85
2022/11/30 14:10:47;;;;;;;8.95;5.07;;;;;;;-4.41;84.02;103301.34;10642883;27;20043;-83
2022/11/30 14:15:56;;;;;;;10.75;5.00;;;;;;;-4.38;84.45;103298.41;10598986;27;20039;-86
2022/11/30 14:21:33;;;;;;;9.85;4.68;;;;;;;-4.35;84.20;103282.94;10636584;27;20036;-81
2022/11/30 14:26:43;;;;;;;7.53;3.78;;;;;;;-4.36;84.57;103291.09;10628368;28;20074;-87
2022/11/30 14:31:51;;;;;;;4.55;3.03;;;;;;;-4.40;84.31;103293.19;10592971;28;20048;-85
2022/11/30 14:37:05;;;;;;;;;;;;;;;-4.44;84.04;103288.19;10623693;27;20051;-86
2022/11/30 14:42:19;;;;;;;8.32;4.65;;;;;;;-4.44;84.12;103277.47;10602924;27;19924;-82
2022/11/30 14:47:23;;;;;;;7.07;4.38;;;;;;;-4.45;83.91;103281.13;10609997;28;20048;-79
2022/11/30 14:52:50;;;;;;;13.95;5.40;;;;;;;-4.47;84.63;103283.06;10585913;27;20052;-85
2022/11/30 14:58:31;;;;;;;11.13;5.07;;;;;;;-4.47;84.48;103280.38;10647129;27;20050;-81
2022/11/30 15:03:34;;;;;;;10.27;4.50;;;;;;;-4.52;84.39;103283.38;10621987;27;20054;-82
2022/11/30 15:08:49;;;;;;;11.40;4.30;;;;;;;-4.52;84.18;103274.50;10573932;27;20044;-81
2022/11/30 15:13:53;;;;;;;11.60;4.43;;;;;;;-4.56;84.29;103279.25;10604963;28;20044;-82
2022/11/30 15:18:57;;;;;;;11.07;5.28;;;;;;;-4.62;83.97;103277.91;10606438;27;20045;-81
2022/11/30 15:24:02;;;;;;;14.13;6.28;;;;;;;-4.62;84.52;103269.00;10597823;27;20134;-82
2022/11/30 15:29:41;;;;;;;15.52;6.28;;;;;;;-4.65;84.38;103275.47;10631392;27;20056;-80
2022/11/30 15:34:47;;;;;;;12.80;6.30;;;;;;;-4.65;84.21;103275.47;10486848;28;20050;-80
2022/11/30 15:39:53;;;;;;;16.33;7.38;;;;;;;-4.63;84.26;103273.50;10608723;28;20031;-81
2022/11/30 15:45:15;;;;;;;13.25;6.60;;;;;;;-4.63;84.07;103262.78;10611604;27;20051;-81
2022/11/30 15:50:29;;;;;;;12.98;6.70;;;;;;;-4.66;84.20;103263.03;10643441;27;20058;-80
2022/11/30 15:55:45;;;;;;;13.23;6.07;;;;;;;-4.62;84.35;103259.16;10621182;27;20035;-80
2022/11/30 16:01:07;;;;;;;15.20;6.82;;;;;;;-4.64;84.38;103242.34;10603668;27;20051;-81
2022/11/30 16:06:16;;;;;;;11.88;6.43;;;;;;;-4.64;84.27;103263.78;10642700;28;20151;-80
2022/11/30 16:11:18;;;;;;;15.80;6.85;;;;;;;-4.66;84.53;103262.19;10605801;28;20062;-81
2022/11/30 16:16:24;;;;;;;13.13;6.93;;;;;;;-4.64;84.61;103263.78;10627281;28;20043;-82
2022/11/30 16:21:26;;;;;;;15.90;7.28;;;;;;;-4.64;83.97;103261.09;10611603;28;20046;-81
2022/11/30 16:26:28;;;;;;;12.32;7.03;;;;;;;-4.60;84.44;103262.56;10575684;28;20230;-81
2022/11/30 16:31:31;;;;;;;15.00;7.53;;;;;;;-4.62;84.09;103256.47;10621680;28;20062;-81
2022/11/30 16:36:35;;;;;;;18.08;7.10;;;;;;;-4.61;83.96;103252.81;10609766;28;20039;-81
2022/11/30 16:41:37;;;;;;;15.05;7.30;;;;;;;-4.52;84.21;103242.34;10571156;28;20051;-81
2022/11/30 16:46:42;;;;;;;12.98;6.85;;;;;;;-4.53;84.16;103244.16;10606062;28;20088;-79
2022/11/30 16:51:45;;;;;;;17.65;8.38;;;;;;;-4.53;83.92;103246.00;10606895;28;20498;-80
2022/11/30 16:56:47;;;;;;;19.40;7.93;;;;;;;-4.51;84.14;103250.28;10588679;28;20062;-81
2022/11/30 17:01:52;;;;;;;13.45;7.30;;;;;;;-4.46;83.80;103249.94;10607513;28;20047;-81
2022/11/30 17:06:54;;;;;;;18.10;7.70;;;;;;;-4.33;83.67;103264.09;10589208;28;20047;-81
2022/11/30 17:11:57;;;;;;;20.38;8.10;;;;;;;-4.25;82.90;103261.66;10576312;28;20047;-81
2022/11/30 17:16:59;;;;;;;14.55;7.35;;;;;;;-4.30;82.57;103253.13;10616623;28;20043;-81
2022/11/30 17:22:02;;;;;;;15.30;7.78;;;;;;;-4.34;81.72;103247.16;10618959;28;20432;-81
2022/11/30 17:27:04;;;;;;;15.95;8.45;;;;;;;-4.30;81.68;103253.13;10601207;28;20497;-80
2022/11/30 17:32:06;;;;;;;17.00;7.50;;;;;;;-4.34;80.89;103257.00;10617313;28;20047;-81
2022/11/30 17:37:09;;;;;;;19.80;8.13;;;;;;;-4.43;80.35;103258.59;10599778;28;20039;-81
2022/11/30 17:42:11;;;;;;;18.80;8.02;;;;;;;-4.39;80.96;103270.75;10617835;28;20052;-81
2022/11/30 17:47:13;;;;;;;17.70;7.82;;;;;;;-4.36;80.51;103265.16;10617644;28;20039;-81
2022/11/30 17:52:16;;;;;;;15.70;8.05;;;;;;;-4.29;79.99;103265.56;10598358;28;20040;-80
2022/11/30 17:57:18;;;;;;;18.05;8.75;;;;;;;-4.30;80.40;103270.06;10597071;28;20530;-81
2022/11/30 18:02:20;;;;;;;20.90;8.80;;;;;;;-4.31;79.56;103272.88;10617261;28;20089;-81
2022/11/30 18:07:23;;;;;;;16.35;8.55;;;;;;;-4.30;79.32;103274.56;10616457;28;20032;-81
2022/11/30 18:12:25;;;;;;;19.73;9.18;;;;;;;-4.27;79.31;103285.06;10615820;28;20043;-81
2022/11/30 18:17:27;;;;;;;17.42;8.60;;;;;;;-4.26;78.94;103289.44;10596524;28;20352;-81
2022/11/30 18:22:30;;;;;;;14.35;7.72;;;;;;;-4.20;78.10;103286.28;10615389;28;20039;-81
2022/11/30 18:27:32;;;;;;;17.95;8.38;;;;;;;-4.19;78.04;103285.28;10615731;28;20050;-81
2022/11/30 18:32:34;;;;;;;17.30;8.40;;;;;;;-4.10;78.33;103284.59;10614385;28;20047;-81
2022/11/30 18:37:37;;;;;;;22.88;9.63;;;;;;;-4.06;77.81;103272.66;10615494;28;20043;-81
2022/11/30 18:42:39;;;;;;;17.33;8.52;;;;;;;-4.07;77.37;103275.44;10615033;28;20036;-81
2022/11/30 18:47:41;;;;;;;14.73;7.90;;;;;;;-4.09;77.61;103275.56;10613504;28;20039;-81
2022/11/30 18:52:43;;;;;;;18.17;8.90;;;;;;;-4.00;77.28;103280.19;10613622;28;20047;-82
2022/11/30 18:57:46;;;;;;;16.08;8.38;;;;;;;-3.99;77.20;103289.97;10608947;27;20043;-81
2022/11/30 19:02:49;;;;;;;18.27;8.98;;;;;;;-3.96;76.98;103289.72;10612980;28;20043;-81
2022/11/30 19:07:51;;;;;;;19.13;9.52;;;;;;;-4.03;76.55;103285.81;10628918;27;20041;-83
2022/11/30 19:12:53;;;;;;;18.85;8.60;;;;;;;-3.99;76.73;103295.34;10655328;27;20047;-82
2022/11/30 19:17:55;;;;;;;20.40;8.75;;;;;;;-3.91;76.82;103302.75;10635826;27;20066;-82
2022/11/30 19:22:58;;;;;;;19.95;8.60;;;;;;;-3.86;76.73;103299.72;10599377;28;20504;-80
2022/11/30 19:28:00;;;;;;;20.88;8.45;;;;;;;-3.85;76.35;103290.69;10596571;28;20390;-81
2022/11/30 19:33:03;;;;;;;19.20;8.82;;;;;;;-3.87;76.75;103301.53;10590578;27;20055;-81
2022/11/30 19:38:05;;;;;;;22.00;9.35;;;;;;;-3.83;76.60;103300.31;10573591;28;20040;-80
2022/11/30 19:43:07;;;;;;;14.70;8.38;;;;;;;-3.88;76.28;103302.53;10606618;27;20047;-80
2022/11/30 19:48:09;;;;;;;17.65;8.15;;;;;;;-3.81;76.20;103308.28;10626703;27;20043;-80
2022/11/30 19:53:12;;;;;;;18.60;9.27;;;;;;;-3.73;76.36;103321.91;10626809;27;20446;-79
2022/11/30 19:58:14;;;;;;;17.85;8.63;;;;;;;-3.66;75.96;103313.25;10629203;27;20053;-79
2022/11/30 20:03:17;;;;;;;18.55;8.80;;;;;;;-3.63;76.22;103325.59;10648215;27;20047;-79
2022/11/30 20:08:19;;;;;;;17.55;9.20;;;;;;;-3.65;76.54;103316.78;10627336;27;20050;-84
2022/11/30 20:13:22;;;;;;;15.20;8.75;;;;;;;-3.63;76.51;103328.28;10595350;27;20456;-79
2022/11/30 20:18:24;;;;;;;17.75;8.73;;;;;;;-3.66;76.15;103333.84;10615014;28;20043;-80
2022/11/30 20:23:26;;;;;;;19.67;8.73;;;;;;;-3.67;76.04;103334.84;10610326;28;20035;-80
2022/11/30 20:28:29;;;;;;;19.08;8.80;;;;;;;-3.70;75.58;103327.03;10625996;28;20059;-78
2022/11/30 20:33:32;;;;;;;15.45;7.75;;;;;;;-3.68;75.57;103333.97;10634104;28;20044;-83
2022/11/30 20:38:36;;;;;;;17.17;8.23;;;;;;;-3.67;75.60;103342.88;10614966;28;20051;-82
2022/11/30 20:43:39;;;;;;;19.60;9.07;;;;;;;-3.68;75.93;103339.34;10599551;28;20220;-82
2022/11/30 20:48:41;;;;;;;15.30;8.10;;;;;;;-3.62;76.17;103342.53;10614264;28;20039;-82
2022/11/30 20:53:44;;;;;;;16.50;8.77;;;;;;;-3.73;76.66;103346.91;10632402;28;20047;-82
2022/11/30 20:58:46;;;;;;;13.57;7.53;;;;;;;-3.73;76.41;103335.34;10629923;28;20099;-81
2022/11/30 21:03:49;;;;;;;20.30;9.50;;;;;;;-3.70;76.36;103341.31;10631546;27;20036;-85
2022/11/30 21:08:51;;;;;;;20.85;8.30;;;;;;;-3.65;76.58;103341.78;10618485;28;20047;-82
2022/11/30 21:13:53;;;;;;;21.35;8.93;;;;;;;-3.55;76.15;103341.06;10623728;28;20036;-82
2022/11/30 21:18:57;;;;;;;17.10;8.68;;;;;;;-3.57;76.17;103338.50;10609751;27;20039;-81
2022/11/30 21:24:02;;;;;;;16.55;8.68;;;;;;;-3.59;76.17;103339.63;10592246;28;20063;-80
2022/11/30 21:29:08;;;;;;;19.40;9.10;;;;;;;-3.50;76.11;103339.72;10600665;27;20047;-79
2022/11/30 21:34:11;;;;;;;15.20;8.63;;;;;;;-3.53;76.14;103342.66;10568351;27;20044;-81
2022/11/30 21:39:14;;;;;;;19.30;8.65;;;;;;;-3.54;76.20;103335.56;10599419;27;20035;-88
2022/11/30 21:44:16;;;;;;;18.80;9.02;;;;;;;-3.50;75.95;103334.34;10595656;27;20039;-83
2022/11/30 21:49:18;;;;;;;22.52;8.82;;;;;;;-3.55;76.01;103335.69;10613643;27;20047;-83
2022/11/30 21:54:22;;;;;;;20.30;9.73;;;;;;;-3.68;75.97;103347.41;10615237;27;20043;-82
2022/11/30 21:59:24;;;;;;;20.13;9.32;;;;;;;-3.82;76.52;103344.94;10614709;27;20031;-86
2022/11/30 22:04:26;;;;;;;19.08;9.90;;;;;;;-3.82;76.61;103354.81;10601927;28;20047;-86
2022/11/30 22:09:29;;;;;;;15.18;8.90;;;;;;;-3.84;77.55;103356.78;10640553;27;20063;-87
2022/11/30 22:14:31;;;;;;;18.42;10.43;;;;;;;-3.82;77.08;103357.50;10616001;27;20035;-81
2022/11/30 22:19:39;;;;;;;;;;;;;;;-3.80;77.27;103361.81;10589281;27;20041;-81
2022/11/30 22:24:41;;;;;;;16.83;9.38;;;;;;;-3.78;77.29;103345.59;10636145;27;19920;-82
2022/11/30 22:29:44;;;;;;;18.40;9.60;;;;;;;-3.80;77.38;103348.38;10568750;27;20046;-79
2022/11/30 22:34:46;;;;;;;20.08;10.10;;;;;;;-3.83;77.66;103353.13;10653147;27;20059;-78
2022/11/30 22:39:48;;;;;;;18.98;9.65;;;;;;;-3.89;77.75;103356.28;10641177;27;20203;-81
2022/11/30 22:44:50;;;;;;;21.08;9.48;;;;;;;-3.96;78.17;103361.28;10635971;27;20035;-81
2022/11/30 22:49:52;;;;;;;20.90;9.60;;;;;;;-4.06;78.65;103347.72;10648227;27;20050;-81
2022/11/30 22:54:55;;;;;;;16.17;8.45;;;;;;;-4.04;78.94;103334.19;10648810;27;20062;-83
2022/11/30 22:59:57;;;;;;;21.83;9.40;;;;;;;-4.14;79.42;103346.63;10611001;27;20134;-81
2022/11/30 23:05:00;;;;;;;20.23;9.13;;;;;;;-4.16;79.60;103353.94;10619672;27;20043;-82
2022/11/30 23:10:02;;;;;;;21.02;9.45;;;;;;;-4.18;79.58;103337.09;10644690;27;20036;-81
2022/11/30 23:15:04;;;;;;;16.77;9.02;;;;;;;-4.11;79.66;103343.69;10612048;27;20039;-81
2022/11/30 23:20:07;;;;;;;19.33;9.25;;;;;;;-4.03;79.88;103335.91;10633036;27;20490;-81